sensor_id;sensor_type;location;lat;lon;timestamp;P1;durP1;ratioP1;P2;durP2;ratioP2
13048;SDS011;6591;51.446;5.404;2023-11-19T00:00:08;4.20;;;3.17;;
13048;SDS011;6591;51.446;5.404;2023-11-19T00:02:40;3.07;;;2.63;;
13048;SDS011;6591;51.446;5.404;2023-11-19T00:05:09;3.20;;;2.57;;
13048;SDS011;6591;51.446;5.404;2023-11-19T00:07:40;4.73;;;2.50;;
13048;SDS011;6591;51.446;5.404;2023-11-19T00:10:08;5.37;;;3.23;;
13048;SDS011;6591;51.446;5.404;2023-11-19T00:12:41;4.63;;;2.70;;
13048;SDS011;6591;51.446;5.404;2023-11-19T00:15:11;3.30;;;2.30;;
13048;SDS011;6591;51.446;5.404;2023-11-19T00:17:45;4.47;;;2.70;;
13048;SDS011;6591;51.446;5.404;2023-11-19T00:20:18;3.23;;;2.53;;
13048;SDS011;6591;51.446;5.404;2023-11-19T00:22:48;3.37;;;2.03;;
13048;SDS011;6591;51.446;5.404;2023-11-19T00:25:18;2.37;;;1.93;;
13048;SDS011;6591;51.446;5.404;2023-11-19T00:27:50;2.80;;;1.80;;
13048;SDS011;6591;51.446;5.404;2023-11-19T00:30:19;3.23;;;2.23;;
13048;SDS011;6591;51.446;5.404;2023-11-19T00:32:46;2.23;;;2.03;;
13048;SDS011;6591;51.446;5.404;2023-11-19T00:35:13;3.53;;;2.30;;
13048;SDS011;6591;51.446;5.404;2023-11-19T00:37:41;2.77;;;2.17;;
13048;SDS011;6591;51.446;5.404;2023-11-19T00:40:09;3.27;;;2.10;;
13048;SDS011;6591;51.446;5.404;2023-11-19T00:42:37;2.97;;;1.90;;
13048;SDS011;6591;51.446;5.404;2023-11-19T00:45:05;3.43;;;2.10;;
13048;SDS011;6591;51.446;5.404;2023-11-19T00:47:37;4.23;;;2.23;;
13048;SDS011;6591;51.446;5.404;2023-11-19T00:50:05;2.93;;;1.90;;
13048;SDS011;6591;51.446;5.404;2023-11-19T00:52:36;4.57;;;2.20;;
13048;SDS011;6591;51.446;5.404;2023-11-19T00:55:05;4.07;;;1.83;;
13048;SDS011;6591;51.446;5.404;2023-11-19T00:57:33;2.57;;;2.07;;
13048;SDS011;6591;51.446;5.404;2023-11-19T01:00:01;4.17;;;2.30;;
13048;SDS011;6591;51.446;5.404;2023-11-19T01:02:35;4.57;;;2.37;;
13048;SDS011;6591;51.446;5.404;2023-11-19T01:05:02;3.30;;;2.03;;
13048;SDS011;6591;51.446;5.404;2023-11-19T01:07:30;5.53;;;2.30;;
13048;SDS011;6591;51.446;5.404;2023-11-19T01:09:57;5.03;;;2.20;;
13048;SDS011;6591;51.446;5.404;2023-11-19T01:12:24;6.67;;;2.30;;
13048;SDS011;6591;51.446;5.404;2023-11-19T01:14:51;4.40;;;2.17;;
13048;SDS011;6591;51.446;5.404;2023-11-19T01:17:20;7.53;;;2.50;;
13048;SDS011;6591;51.446;5.404;2023-11-19T01:19:47;6.73;;;2.60;;
13048;SDS011;6591;51.446;5.404;2023-11-19T01:22:14;7.07;;;2.70;;
13048;SDS011;6591;51.446;5.404;2023-11-19T01:24:41;8.40;;;2.70;;
13048;SDS011;6591;51.446;5.404;2023-11-19T01:27:08;6.83;;;2.50;;
13048;SDS011;6591;51.446;5.404;2023-11-19T01:29:35;5.20;;;2.40;;
13048;SDS011;6591;51.446;5.404;2023-11-19T01:32:05;5.30;;;2.50;;
13048;SDS011;6591;51.446;5.404;2023-11-19T01:34:33;6.43;;;2.33;;
13048;SDS011;6591;51.446;5.404;2023-11-19T01:37:00;6.10;;;2.40;;
13048;SDS011;6591;51.446;5.404;2023-11-19T01:39:27;7.90;;;2.77;;
13048;SDS011;6591;51.446;5.404;2023-11-19T01:41:54;6.30;;;2.13;;
13048;SDS011;6591;51.446;5.404;2023-11-19T01:44:21;8.73;;;2.40;;
13048;SDS011;6591;51.446;5.404;2023-11-19T01:46:49;5.67;;;2.47;;
13048;SDS011;6591;51.446;5.404;2023-11-19T01:49:16;6.33;;;2.80;;
13048;SDS011;6591;51.446;5.404;2023-11-19T01:51:46;5.20;;;2.40;;
13048;SDS011;6591;51.446;5.404;2023-11-19T01:54:14;7.40;;;2.90;;
13048;SDS011;6591;51.446;5.404;2023-11-19T01:56:42;6.00;;;2.50;;
13048;SDS011;6591;51.446;5.404;2023-11-19T01:59:09;8.80;;;2.20;;
13048;SDS011;6591;51.446;5.404;2023-11-19T02:01:41;6.97;;;2.20;;
13048;SDS011;6591;51.446;5.404;2023-11-19T02:04:11;5.57;;;2.60;;
13048;SDS011;6591;51.446;5.404;2023-11-19T02:06:41;9.70;;;2.93;;
13048;SDS011;6591;51.446;5.404;2023-11-19T02:09:09;7.57;;;2.23;;
13048;SDS011;6591;51.446;5.404;2023-11-19T02:11:39;4.77;;;2.10;;
13048;SDS011;6591;51.446;5.404;2023-11-19T02:14:07;7.83;;;2.90;;
13048;SDS011;6591;51.446;5.404;2023-11-19T02:16:34;5.30;;;2.53;;
13048;SDS011;6591;51.446;5.404;2023-11-19T02:19:01;5.03;;;2.33;;
13048;SDS011;6591;51.446;5.404;2023-11-19T02:21:30;8.00;;;3.23;;
13048;SDS011;6591;51.446;5.404;2023-11-19T02:23:57;8.47;;;3.03;;
13048;SDS011;6591;51.446;5.404;2023-11-19T02:26:46;8.77;;;3.13;;
13048;SDS011;6591;51.446;5.404;2023-11-19T02:29:29;7.53;;;2.80;;
13048;SDS011;6591;51.446;5.404;2023-11-19T02:31:56;10.47;;;3.40;;
13048;SDS011;6591;51.446;5.404;2023-11-19T02:34:23;11.70;;;3.50;;
13048;SDS011;6591;51.446;5.404;2023-11-19T02:36:50;10.50;;;3.67;;
13048;SDS011;6591;51.446;5.404;2023-11-19T02:39:20;16.50;;;4.40;;
13048;SDS011;6591;51.446;5.404;2023-11-19T02:41:48;11.57;;;3.60;;
13048;SDS011;6591;51.446;5.404;2023-11-19T02:44:19;12.67;;;4.00;;
13048;SDS011;6591;51.446;5.404;2023-11-19T02:46:46;13.10;;;3.67;;
13048;SDS011;6591;51.446;5.404;2023-11-19T02:49:14;18.93;;;3.77;;
13048;SDS011;6591;51.446;5.404;2023-11-19T02:51:43;18.77;;;3.83;;
13048;SDS011;6591;51.446;5.404;2023-11-19T02:54:10;14.60;;;4.30;;
13048;SDS011;6591;51.446;5.404;2023-11-19T02:56:37;15.97;;;4.07;;
13048;SDS011;6591;51.446;5.404;2023-11-19T02:59:06;16.80;;;4.20;;
13048;SDS011;6591;51.446;5.404;2023-11-19T03:01:36;14.60;;;3.73;;
13048;SDS011;6591;51.446;5.404;2023-11-19T03:04:03;11.67;;;3.30;;
13048;SDS011;6591;51.446;5.404;2023-11-19T03:06:32;13.73;;;3.77;;
13048;SDS011;6591;51.446;5.404;2023-11-19T03:08:59;14.23;;;3.43;;
13048;SDS011;6591;51.446;5.404;2023-11-19T03:11:32;16.73;;;4.53;;
13048;SDS011;6591;51.446;5.404;2023-11-19T03:14:00;15.60;;;4.20;;
13048;SDS011;6591;51.446;5.404;2023-11-19T03:16:27;14.40;;;4.00;;
13048;SDS011;6591;51.446;5.404;2023-11-19T03:18:54;19.03;;;4.47;;
13048;SDS011;6591;51.446;5.404;2023-11-19T03:21:29;11.83;;;4.30;;
13048;SDS011;6591;51.446;5.404;2023-11-19T03:23:58;15.57;;;4.03;;
13048;SDS011;6591;51.446;5.404;2023-11-19T03:26:29;16.97;;;4.40;;
13048;SDS011;6591;51.446;5.404;2023-11-19T03:28:56;18.40;;;4.90;;
13048;SDS011;6591;51.446;5.404;2023-11-19T03:31:23;14.77;;;4.07;;
13048;SDS011;6591;51.446;5.404;2023-11-19T03:33:51;20.70;;;4.90;;
13048;SDS011;6591;51.446;5.404;2023-11-19T03:36:20;16.23;;;5.07;;
13048;SDS011;6591;51.446;5.404;2023-11-19T03:38:49;14.37;;;4.40;;
13048;SDS011;6591;51.446;5.404;2023-11-19T03:41:16;21.53;;;4.40;;
13048;SDS011;6591;51.446;5.404;2023-11-19T03:43:44;16.90;;;4.27;;
13048;SDS011;6591;51.446;5.404;2023-11-19T03:46:20;15.37;;;4.23;;
13048;SDS011;6591;51.446;5.404;2023-11-19T03:48:48;15.73;;;4.20;;
13048;SDS011;6591;51.446;5.404;2023-11-19T03:51:16;16.40;;;4.47;;
13048;SDS011;6591;51.446;5.404;2023-11-19T03:53:44;17.87;;;4.57;;
13048;SDS011;6591;51.446;5.404;2023-11-19T03:56:12;15.13;;;4.17;;
13048;SDS011;6591;51.446;5.404;2023-11-19T03:58:39;15.93;;;4.13;;
13048;SDS011;6591;51.446;5.404;2023-11-19T04:01:10;15.40;;;4.80;;
13048;SDS011;6591;51.446;5.404;2023-11-19T04:03:42;19.53;;;4.40;;
13048;SDS011;6591;51.446;5.404;2023-11-19T04:06:12;18.27;;;4.47;;
13048;SDS011;6591;51.446;5.404;2023-11-19T04:08:39;15.90;;;3.97;;
13048;SDS011;6591;51.446;5.404;2023-11-19T04:11:08;21.97;;;5.63;;
13048;SDS011;6591;51.446;5.404;2023-11-19T04:13:36;17.17;;;4.27;;
13048;SDS011;6591;51.446;5.404;2023-11-19T04:16:03;18.37;;;5.07;;
13048;SDS011;6591;51.446;5.404;2023-11-19T04:18:31;18.80;;;4.53;;
13048;SDS011;6591;51.446;5.404;2023-11-19T04:20:58;11.93;;;4.47;;
13048;SDS011;6591;51.446;5.404;2023-11-19T04:23:25;17.47;;;5.00;;
13048;SDS011;6591;51.446;5.404;2023-11-19T04:25:55;17.60;;;5.07;;
13048;SDS011;6591;51.446;5.404;2023-11-19T04:28:36;22.07;;;4.63;;
13048;SDS011;6591;51.446;5.404;2023-11-19T04:31:04;20.33;;;4.90;;
13048;SDS011;6591;51.446;5.404;2023-11-19T04:33:32;15.93;;;4.20;;
13048;SDS011;6591;51.446;5.404;2023-11-19T04:36:00;21.43;;;5.30;;
13048;SDS011;6591;51.446;5.404;2023-11-19T04:38:27;21.33;;;5.90;;
13048;SDS011;6591;51.446;5.404;2023-11-19T04:40:54;18.27;;;4.67;;
13048;SDS011;6591;51.446;5.404;2023-11-19T04:43:23;19.83;;;5.10;;
13048;SDS011;6591;51.446;5.404;2023-11-19T04:45:51;19.73;;;4.60;;
13048;SDS011;6591;51.446;5.404;2023-11-19T04:48:18;18.63;;;5.17;;
13048;SDS011;6591;51.446;5.404;2023-11-19T04:50:46;18.30;;;4.80;;
13048;SDS011;6591;51.446;5.404;2023-11-19T04:53:14;15.20;;;3.73;;
13048;SDS011;6591;51.446;5.404;2023-11-19T04:55:42;19.07;;;4.73;;
13048;SDS011;6591;51.446;5.404;2023-11-19T04:58:09;22.47;;;4.83;;
13048;SDS011;6591;51.446;5.404;2023-11-19T05:00:37;18.00;;;4.70;;
13048;SDS011;6591;51.446;5.404;2023-11-19T05:03:04;16.20;;;4.53;;
13048;SDS011;6591;51.446;5.404;2023-11-19T05:05:31;22.23;;;5.60;;
13048;SDS011;6591;51.446;5.404;2023-11-19T05:07:59;14.87;;;4.90;;
13048;SDS011;6591;51.446;5.404;2023-11-19T05:10:26;18.23;;;5.50;;
13048;SDS011;6591;51.446;5.404;2023-11-19T05:12:53;18.70;;;4.97;;
13048;SDS011;6591;51.446;5.404;2023-11-19T05:15:22;19.87;;;4.67;;
13048;SDS011;6591;51.446;5.404;2023-11-19T05:17:50;19.33;;;4.70;;
13048;SDS011;6591;51.446;5.404;2023-11-19T05:20:17;26.97;;;5.60;;
13048;SDS011;6591;51.446;5.404;2023-11-19T05:22:47;15.77;;;4.60;;
13048;SDS011;6591;51.446;5.404;2023-11-19T05:25:15;19.80;;;5.07;;
13048;SDS011;6591;51.446;5.404;2023-11-19T05:27:43;21.33;;;5.37;;
13048;SDS011;6591;51.446;5.404;2023-11-19T05:30:10;16.73;;;5.30;;
13048;SDS011;6591;51.446;5.404;2023-11-19T05:32:38;20.37;;;5.37;;
13048;SDS011;6591;51.446;5.404;2023-11-19T05:35:05;23.87;;;5.50;;
13048;SDS011;6591;51.446;5.404;2023-11-19T05:37:34;19.40;;;5.40;;
13048;SDS011;6591;51.446;5.404;2023-11-19T05:40:01;22.37;;;5.27;;
13048;SDS011;6591;51.446;5.404;2023-11-19T05:42:30;20.13;;;5.60;;
13048;SDS011;6591;51.446;5.404;2023-11-19T05:44:57;21.07;;;5.43;;
13048;SDS011;6591;51.446;5.404;2023-11-19T05:47:25;19.47;;;5.40;;
13048;SDS011;6591;51.446;5.404;2023-11-19T05:49:53;20.43;;;4.73;;
13048;SDS011;6591;51.446;5.404;2023-11-19T05:52:20;22.13;;;5.23;;
13048;SDS011;6591;51.446;5.404;2023-11-19T05:54:49;20.07;;;5.00;;
13048;SDS011;6591;51.446;5.404;2023-11-19T05:57:18;21.93;;;5.13;;
13048;SDS011;6591;51.446;5.404;2023-11-19T05:59:50;18.10;;;4.43;;
13048;SDS011;6591;51.446;5.404;2023-11-19T06:02:18;18.47;;;4.63;;
13048;SDS011;6591;51.446;5.404;2023-11-19T06:04:47;16.43;;;4.10;;
13048;SDS011;6591;51.446;5.404;2023-11-19T06:07:14;21.60;;;5.83;;
13048;SDS011;6591;51.446;5.404;2023-11-19T06:09:42;20.17;;;4.90;;
13048;SDS011;6591;51.446;5.404;2023-11-19T06:12:09;26.17;;;5.60;;
13048;SDS011;6591;51.446;5.404;2023-11-19T06:14:36;23.90;;;5.30;;
13048;SDS011;6591;51.446;5.404;2023-11-19T06:17:03;18.80;;;4.23;;
13048;SDS011;6591;51.446;5.404;2023-11-19T06:19:31;23.43;;;5.43;;
13048;SDS011;6591;51.446;5.404;2023-11-19T06:21:59;21.67;;;5.77;;
13048;SDS011;6591;51.446;5.404;2023-11-19T06:24:26;21.50;;;4.87;;
13048;SDS011;6591;51.446;5.404;2023-11-19T06:26:54;19.37;;;4.67;;
13048;SDS011;6591;51.446;5.404;2023-11-19T06:29:21;23.27;;;5.70;;
13048;SDS011;6591;51.446;5.404;2023-11-19T06:31:48;21.70;;;5.77;;
13048;SDS011;6591;51.446;5.404;2023-11-19T06:34:15;19.00;;;5.13;;
13048;SDS011;6591;51.446;5.404;2023-11-19T06:36:43;24.37;;;5.03;;
13048;SDS011;6591;51.446;5.404;2023-11-19T06:39:10;20.03;;;5.43;;
13048;SDS011;6591;51.446;5.404;2023-11-19T06:41:38;20.17;;;4.87;;
13048;SDS011;6591;51.446;5.404;2023-11-19T06:44:05;20.53;;;5.17;;
13048;SDS011;6591;51.446;5.404;2023-11-19T06:46:33;24.10;;;5.77;;
13048;SDS011;6591;51.446;5.404;2023-11-19T06:49:00;20.60;;;5.87;;
13048;SDS011;6591;51.446;5.404;2023-11-19T06:51:28;20.90;;;5.40;;
13048;SDS011;6591;51.446;5.404;2023-11-19T06:53:56;25.93;;;6.10;;
13048;SDS011;6591;51.446;5.404;2023-11-19T06:56:23;21.33;;;5.07;;
13048;SDS011;6591;51.446;5.404;2023-11-19T06:58:51;19.00;;;4.70;;
13048;SDS011;6591;51.446;5.404;2023-11-19T07:01:19;22.73;;;5.43;;
13048;SDS011;6591;51.446;5.404;2023-11-19T07:03:47;24.13;;;5.03;;
13048;SDS011;6591;51.446;5.404;2023-11-19T07:06:15;22.33;;;5.40;;
13048;SDS011;6591;51.446;5.404;2023-11-19T07:08:43;22.00;;;5.27;;
13048;SDS011;6591;51.446;5.404;2023-11-19T07:11:11;20.03;;;5.10;;
13048;SDS011;6591;51.446;5.404;2023-11-19T07:13:43;22.97;;;5.50;;
13048;SDS011;6591;51.446;5.404;2023-11-19T07:16:13;24.37;;;5.27;;
13048;SDS011;6591;51.446;5.404;2023-11-19T07:18:41;16.93;;;4.90;;
13048;SDS011;6591;51.446;5.404;2023-11-19T07:21:10;27.30;;;5.57;;
13048;SDS011;6591;51.446;5.404;2023-11-19T07:23:37;22.90;;;4.73;;
13048;SDS011;6591;51.446;5.404;2023-11-19T07:26:05;14.23;;;4.67;;
13048;SDS011;6591;51.446;5.404;2023-11-19T07:28:36;22.43;;;5.80;;
13048;SDS011;6591;51.446;5.404;2023-11-19T07:31:03;19.73;;;5.00;;
13048;SDS011;6591;51.446;5.404;2023-11-19T07:33:31;26.63;;;5.30;;
13048;SDS011;6591;51.446;5.404;2023-11-19T07:35:58;23.10;;;5.13;;
13048;SDS011;6591;51.446;5.404;2023-11-19T07:38:26;25.87;;;6.13;;
13048;SDS011;6591;51.446;5.404;2023-11-19T07:40:54;15.77;;;4.87;;
13048;SDS011;6591;51.446;5.404;2023-11-19T07:43:23;20.23;;;5.70;;
13048;SDS011;6591;51.446;5.404;2023-11-19T07:45:52;22.17;;;5.00;;
13048;SDS011;6591;51.446;5.404;2023-11-19T07:48:22;18.97;;;4.50;;
13048;SDS011;6591;51.446;5.404;2023-11-19T07:50:53;18.83;;;4.80;;
13048;SDS011;6591;51.446;5.404;2023-11-19T07:53:20;18.70;;;5.17;;
13048;SDS011;6591;51.446;5.404;2023-11-19T07:55:47;15.13;;;4.27;;
13048;SDS011;6591;51.446;5.404;2023-11-19T07:58:15;20.17;;;4.90;;
13048;SDS011;6591;51.446;5.404;2023-11-19T08:00:42;21.13;;;5.33;;
13048;SDS011;6591;51.446;5.404;2023-11-19T08:03:09;15.87;;;4.70;;
13048;SDS011;6591;51.446;5.404;2023-11-19T08:05:37;18.13;;;4.87;;
13048;SDS011;6591;51.446;5.404;2023-11-19T08:08:04;17.07;;;4.47;;
13048;SDS011;6591;51.446;5.404;2023-11-19T08:10:31;22.10;;;5.90;;
13048;SDS011;6591;51.446;5.404;2023-11-19T08:12:59;16.97;;;4.80;;
13048;SDS011;6591;51.446;5.404;2023-11-19T08:15:27;17.10;;;4.43;;
13048;SDS011;6591;51.446;5.404;2023-11-19T08:17:57;18.20;;;4.90;;
13048;SDS011;6591;51.446;5.404;2023-11-19T08:20:24;20.60;;;4.13;;
13048;SDS011;6591;51.446;5.404;2023-11-19T08:22:52;16.90;;;5.00;;
13048;SDS011;6591;51.446;5.404;2023-11-19T08:25:20;16.93;;;4.50;;
13048;SDS011;6591;51.446;5.404;2023-11-19T08:27:49;17.63;;;4.43;;
13048;SDS011;6591;51.446;5.404;2023-11-19T08:30:16;16.97;;;5.10;;
13048;SDS011;6591;51.446;5.404;2023-11-19T08:32:43;15.43;;;4.50;;
13048;SDS011;6591;51.446;5.404;2023-11-19T08:35:10;22.60;;;4.47;;
13048;SDS011;6591;51.446;5.404;2023-11-19T08:37:37;17.93;;;4.63;;
13048;SDS011;6591;51.446;5.404;2023-11-19T08:40:05;17.33;;;4.80;;
13048;SDS011;6591;51.446;5.404;2023-11-19T08:42:36;21.03;;;5.30;;
13048;SDS011;6591;51.446;5.404;2023-11-19T08:45:05;15.67;;;4.80;;
13048;SDS011;6591;51.446;5.404;2023-11-19T08:47:39;22.63;;;5.27;;
13048;SDS011;6591;51.446;5.404;2023-11-19T08:50:09;23.80;;;6.07;;
13048;SDS011;6591;51.446;5.404;2023-11-19T08:52:37;21.50;;;4.97;;
13048;SDS011;6591;51.446;5.404;2023-11-19T08:55:06;20.20;;;5.77;;
13048;SDS011;6591;51.446;5.404;2023-11-19T08:57:36;24.47;;;5.40;;
13048;SDS011;6591;51.446;5.404;2023-11-19T09:00:07;21.83;;;5.37;;
13048;SDS011;6591;51.446;5.404;2023-11-19T09:02:40;24.07;;;4.87;;
13048;SDS011;6591;51.446;5.404;2023-11-19T09:05:12;23.07;;;5.20;;
13048;SDS011;6591;51.446;5.404;2023-11-19T09:07:40;22.23;;;5.00;;
13048;SDS011;6591;51.446;5.404;2023-11-19T09:10:07;17.83;;;4.57;;
13048;SDS011;6591;51.446;5.404;2023-11-19T09:12:37;18.40;;;4.90;;
13048;SDS011;6591;51.446;5.404;2023-11-19T09:15:05;16.70;;;4.20;;
13048;SDS011;6591;51.446;5.404;2023-11-19T09:17:35;24.83;;;5.27;;
13048;SDS011;6591;51.446;5.404;2023-11-19T09:20:03;20.90;;;5.00;;
13048;SDS011;6591;51.446;5.404;2023-11-19T09:22:30;18.83;;;5.17;;
13048;SDS011;6591;51.446;5.404;2023-11-19T09:24:58;18.33;;;5.10;;
13048;SDS011;6591;51.446;5.404;2023-11-19T09:27:26;22.73;;;5.00;;
13048;SDS011;6591;51.446;5.404;2023-11-19T09:29:54;21.90;;;4.73;;
13048;SDS011;6591;51.446;5.404;2023-11-19T09:32:24;19.90;;;4.97;;
13048;SDS011;6591;51.446;5.404;2023-11-19T09:34:52;19.20;;;4.97;;
13048;SDS011;6591;51.446;5.404;2023-11-19T09:37:20;20.07;;;5.17;;
13048;SDS011;6591;51.446;5.404;2023-11-19T09:39:48;28.47;;;6.23;;
13048;SDS011;6591;51.446;5.404;2023-11-19T09:42:15;20.27;;;5.57;;
13048;SDS011;6591;51.446;5.404;2023-11-19T09:44:47;23.53;;;4.67;;
13048;SDS011;6591;51.446;5.404;2023-11-19T09:47:16;23.03;;;5.23;;
13048;SDS011;6591;51.446;5.404;2023-11-19T09:49:47;27.73;;;6.07;;
13048;SDS011;6591;51.446;5.404;2023-11-19T09:52:16;20.83;;;4.60;;
13048;SDS011;6591;51.446;5.404;2023-11-19T09:54:43;21.00;;;5.00;;
13048;SDS011;6591;51.446;5.404;2023-11-19T09:57:10;24.07;;;5.43;;
13048;SDS011;6591;51.446;5.404;2023-11-19T09:59:42;22.63;;;5.40;;
13048;SDS011;6591;51.446;5.404;2023-11-19T10:02:12;19.83;;;4.80;;
13048;SDS011;6591;51.446;5.404;2023-11-19T10:04:41;14.60;;;4.03;;
13048;SDS011;6591;51.446;5.404;2023-11-19T10:07:11;17.50;;;5.07;;
13048;SDS011;6591;51.446;5.404;2023-11-19T10:09:38;20.50;;;5.30;;
13048;SDS011;6591;51.446;5.404;2023-11-19T10:12:05;16.43;;;4.40;;
13048;SDS011;6591;51.446;5.404;2023-11-19T10:14:33;18.10;;;5.93;;
13048;SDS011;6591;51.446;5.404;2023-11-19T10:17:06;19.40;;;5.03;;
13048;SDS011;6591;51.446;5.404;2023-11-19T10:19:34;18.83;;;5.13;;
13048;SDS011;6591;51.446;5.404;2023-11-19T10:22:04;20.60;;;4.63;;
13048;SDS011;6591;51.446;5.404;2023-11-19T10:24:33;18.67;;;4.63;;
13048;SDS011;6591;51.446;5.404;2023-11-19T10:27:08;19.07;;;4.43;;
13048;SDS011;6591;51.446;5.404;2023-11-19T10:29:36;15.33;;;4.13;;
13048;SDS011;6591;51.446;5.404;2023-11-19T10:32:04;15.27;;;4.77;;
13048;SDS011;6591;51.446;5.404;2023-11-19T10:34:51;19.37;;;5.20;;
13048;SDS011;6591;51.446;5.404;2023-11-19T10:37:33;17.47;;;5.20;;
13048;SDS011;6591;51.446;5.404;2023-11-19T10:40:04;16.77;;;4.70;;
13048;SDS011;6591;51.446;5.404;2023-11-19T10:42:32;13.00;;;4.00;;
13048;SDS011;6591;51.446;5.404;2023-11-19T10:44:59;21.70;;;5.07;;
13048;SDS011;6591;51.446;5.404;2023-11-19T10:47:26;19.20;;;4.60;;
13048;SDS011;6591;51.446;5.404;2023-11-19T10:49:57;18.73;;;4.23;;
13048;SDS011;6591;51.446;5.404;2023-11-19T10:52:25;16.50;;;4.20;;
13048;SDS011;6591;51.446;5.404;2023-11-19T10:54:54;18.43;;;4.57;;
13048;SDS011;6591;51.446;5.404;2023-11-19T10:57:28;18.80;;;5.07;;
13048;SDS011;6591;51.446;5.404;2023-11-19T11:00:00;11.50;;;3.53;;
13048;SDS011;6591;51.446;5.404;2023-11-19T11:02:36;16.13;;;4.67;;
13048;SDS011;6591;51.446;5.404;2023-11-19T11:05:08;18.57;;;3.77;;
13048;SDS011;6591;51.446;5.404;2023-11-19T11:07:38;14.00;;;4.03;;
13048;SDS011;6591;51.446;5.404;2023-11-19T11:10:08;14.07;;;3.77;;
13048;SDS011;6591;51.446;5.404;2023-11-19T11:12:38;12.87;;;3.67;;
13048;SDS011;6591;51.446;5.404;2023-11-19T11:15:08;17.50;;;4.07;;
13048;SDS011;6591;51.446;5.404;2023-11-19T11:17:42;15.57;;;4.80;;
13048;SDS011;6591;51.446;5.404;2023-11-19T11:20:12;13.90;;;3.87;;
13048;SDS011;6591;51.446;5.404;2023-11-19T11:22:46;14.10;;;4.27;;
13048;SDS011;6591;51.446;5.404;2023-11-19T11:34:26;12.17;;;3.83;;
13048;SDS011;6591;51.446;5.404;2023-11-19T11:40:17;13.87;;;3.77;;
13048;SDS011;6591;51.446;5.404;2023-11-19T11:42:47;14.50;;;3.90;;
13048;SDS011;6591;51.446;5.404;2023-11-19T11:45:18;8.53;;;2.97;;
13048;SDS011;6591;51.446;5.404;2023-11-19T11:48:21;10.17;;;3.00;;
13048;SDS011;6591;51.446;5.404;2023-11-19T11:50:55;10.53;;;3.50;;
13048;SDS011;6591;51.446;5.404;2023-11-19T11:53:25;16.37;;;3.70;;
13048;SDS011;6591;51.446;5.404;2023-11-19T11:55:53;13.40;;;3.57;;
13048;SDS011;6591;51.446;5.404;2023-11-19T11:58:26;11.57;;;3.73;;
13048;SDS011;6591;51.446;5.404;2023-11-19T12:01:01;13.40;;;4.03;;
13048;SDS011;6591;51.446;5.404;2023-11-19T12:03:33;11.00;;;3.70;;
13048;SDS011;6591;51.446;5.404;2023-11-19T12:06:01;13.23;;;3.83;;
13048;SDS011;6591;51.446;5.404;2023-11-19T12:08:30;12.23;;;3.40;;
13048;SDS011;6591;51.446;5.404;2023-11-19T12:10:58;15.37;;;4.43;;
13048;SDS011;6591;51.446;5.404;2023-11-19T12:13:47;17.30;;;4.37;;
13048;SDS011;6591;51.446;5.404;2023-11-19T12:16:26;17.03;;;4.63;;
13048;SDS011;6591;51.446;5.404;2023-11-19T12:18:56;11.70;;;3.80;;
13048;SDS011;6591;51.446;5.404;2023-11-19T12:21:30;15.00;;;3.67;;
13048;SDS011;6591;51.446;5.404;2023-11-19T12:23:59;12.20;;;3.60;;
13048;SDS011;6591;51.446;5.404;2023-11-19T12:26:34;12.60;;;4.17;;
13048;SDS011;6591;51.446;5.404;2023-11-19T12:29:04;14.67;;;3.83;;
13048;SDS011;6591;51.446;5.404;2023-11-19T12:31:35;14.23;;;4.10;;
13048;SDS011;6591;51.446;5.404;2023-11-19T12:34:06;13.13;;;4.00;;
13048;SDS011;6591;51.446;5.404;2023-11-19T12:36:39;12.87;;;4.13;;
13048;SDS011;6591;51.446;5.404;2023-11-19T12:39:07;12.63;;;3.47;;
13048;SDS011;6591;51.446;5.404;2023-11-19T12:41:49;16.43;;;4.40;;
13048;SDS011;6591;51.446;5.404;2023-11-19T12:44:18;12.00;;;4.17;;
13048;SDS011;6591;51.446;5.404;2023-11-19T12:46:58;12.80;;;4.00;;
13048;SDS011;6591;51.446;5.404;2023-11-19T12:49:31;14.63;;;4.23;;
13048;SDS011;6591;51.446;5.404;2023-11-19T12:51:59;16.70;;;4.10;;
13048;SDS011;6591;51.446;5.404;2023-11-19T12:54:34;11.53;;;3.67;;
13048;SDS011;6591;51.446;5.404;2023-11-19T12:57:03;13.57;;;3.90;;
13048;SDS011;6591;51.446;5.404;2023-11-19T12:59:31;15.27;;;4.30;;
13048;SDS011;6591;51.446;5.404;2023-11-19T13:01:59;14.47;;;3.93;;
13048;SDS011;6591;51.446;5.404;2023-11-19T13:04:30;15.70;;;3.93;;
13048;SDS011;6591;51.446;5.404;2023-11-19T13:06:58;11.17;;;3.80;;
13048;SDS011;6591;51.446;5.404;2023-11-19T13:09:32;14.43;;;3.47;;
13048;SDS011;6591;51.446;5.404;2023-11-19T13:11:59;16.47;;;3.70;;
13048;SDS011;6591;51.446;5.404;2023-11-19T13:14:39;13.20;;;3.83;;
13048;SDS011;6591;51.446;5.404;2023-11-19T13:17:08;16.13;;;3.70;;
13048;SDS011;6591;51.446;5.404;2023-11-19T13:19:40;13.50;;;3.83;;
13048;SDS011;6591;51.446;5.404;2023-11-19T13:22:07;16.07;;;3.83;;
13048;SDS011;6591;51.446;5.404;2023-11-19T13:24:35;13.00;;;3.90;;
13048;SDS011;6591;51.446;5.404;2023-11-19T13:27:04;13.70;;;3.40;;
13048;SDS011;6591;51.446;5.404;2023-11-19T13:29:31;9.37;;;3.07;;
13048;SDS011;6591;51.446;5.404;2023-11-19T13:32:02;13.20;;;3.53;;
13048;SDS011;6591;51.446;5.404;2023-11-19T13:34:31;13.57;;;3.83;;
13048;SDS011;6591;51.446;5.404;2023-11-19T13:36:58;14.23;;;4.77;;
13048;SDS011;6591;51.446;5.404;2023-11-19T13:39:28;13.13;;;3.63;;
13048;SDS011;6591;51.446;5.404;2023-11-19T13:41:55;12.20;;;3.70;;
13048;SDS011;6591;51.446;5.404;2023-11-19T13:44:26;12.30;;;3.57;;
13048;SDS011;6591;51.446;5.404;2023-11-19T13:46:53;13.23;;;3.57;;
13048;SDS011;6591;51.446;5.404;2023-11-19T13:49:21;17.87;;;4.80;;
13048;SDS011;6591;51.446;5.404;2023-11-19T13:51:51;13.67;;;3.70;;
13048;SDS011;6591;51.446;5.404;2023-11-19T13:54:20;14.37;;;3.83;;
13048;SDS011;6591;51.446;5.404;2023-11-19T13:56:48;18.77;;;3.97;;
13048;SDS011;6591;51.446;5.404;2023-11-19T13:59:15;10.27;;;3.27;;
13048;SDS011;6591;51.446;5.404;2023-11-19T14:01:42;10.83;;;3.40;;
13048;SDS011;6591;51.446;5.404;2023-11-19T14:04:10;17.27;;;3.87;;
13048;SDS011;6591;51.446;5.404;2023-11-19T14:06:37;8.70;;;3.03;;
13048;SDS011;6591;51.446;5.404;2023-11-19T14:09:06;14.73;;;3.57;;
13048;SDS011;6591;51.446;5.404;2023-11-19T14:11:33;9.37;;;3.27;;
13048;SDS011;6591;51.446;5.404;2023-11-19T14:14:01;12.97;;;4.00;;
13048;SDS011;6591;51.446;5.404;2023-11-19T14:16:28;12.80;;;3.77;;
13048;SDS011;6591;51.446;5.404;2023-11-19T14:18:56;15.67;;;3.73;;
13048;SDS011;6591;51.446;5.404;2023-11-19T14:21:24;11.83;;;3.37;;
13048;SDS011;6591;51.446;5.404;2023-11-19T14:23:54;10.00;;;3.83;;
13048;SDS011;6591;51.446;5.404;2023-11-19T14:26:22;9.13;;;2.70;;
13048;SDS011;6591;51.446;5.404;2023-11-19T14:28:50;8.93;;;2.93;;
13048;SDS011;6591;51.446;5.404;2023-11-19T14:31:20;9.43;;;2.73;;
13048;SDS011;6591;51.446;5.404;2023-11-19T14:33:47;8.37;;;2.87;;
13048;SDS011;6591;51.446;5.404;2023-11-19T14:36:15;13.90;;;3.47;;
13048;SDS011;6591;51.446;5.404;2023-11-19T14:38:42;10.37;;;3.67;;
13048;SDS011;6591;51.446;5.404;2023-11-19T14:41:10;11.37;;;3.47;;
13048;SDS011;6591;51.446;5.404;2023-11-19T14:43:38;12.07;;;3.87;;
13048;SDS011;6591;51.446;5.404;2023-11-19T14:46:06;9.97;;;3.50;;
13048;SDS011;6591;51.446;5.404;2023-11-19T14:48:33;12.60;;;3.50;;
13048;SDS011;6591;51.446;5.404;2023-11-19T14:51:01;11.77;;;3.40;;
13048;SDS011;6591;51.446;5.404;2023-11-19T14:53:29;13.80;;;3.57;;
13048;SDS011;6591;51.446;5.404;2023-11-19T14:55:56;11.03;;;3.50;;
13048;SDS011;6591;51.446;5.404;2023-11-19T14:58:24;14.10;;;3.70;;
13048;SDS011;6591;51.446;5.404;2023-11-19T15:00:52;15.00;;;3.43;;
13048;SDS011;6591;51.446;5.404;2023-11-19T15:03:21;12.03;;;3.87;;
13048;SDS011;6591;51.446;5.404;2023-11-19T15:05:48;8.97;;;3.23;;
13048;SDS011;6591;51.446;5.404;2023-11-19T15:08:17;10.27;;;3.40;;
13048;SDS011;6591;51.446;5.404;2023-11-19T15:10:46;12.80;;;4.17;;
13048;SDS011;6591;51.446;5.404;2023-11-19T15:13:13;14.20;;;4.40;;